sensor_id;sensor_type;location;lat;lon;timestamp;temperature;humidity
16901;DHT22;8567;52.540;6.434;2024-03-06T08:34:42;19.80;53.20
16901;DHT22;8567;52.540;6.434;2024-03-06T08:37:08;19.50;54.80
16901;DHT22;8567;52.540;6.434;2024-03-06T08:39:36;19.50;54.10
16901;DHT22;8567;52.540;6.434;2024-03-06T08:42:03;19.50;54.70
16901;DHT22;8567;52.540;6.434;2024-03-06T08:44:30;19.50;54.70
16901;DHT22;8567;52.540;6.434;2024-03-06T08:46:56;19.50;54.30
16901;DHT22;8567;52.540;6.434;2024-03-06T08:49:23;19.50;53.60
16901;DHT22;8567;52.540;6.434;2024-03-06T08:51:50;19.50;53.10
16901;DHT22;8567;52.540;6.434;2024-03-06T08:54:17;19.40;52.70
16901;DHT22;8567;52.540;6.434;2024-03-06T08:56:45;19.40;52.50
16901;DHT22;8567;52.540;6.434;2024-03-06T08:59:11;19.40;52.00
16901;DHT22;8567;52.540;6.434;2024-03-06T09:01:38;19.40;52.00
16901;DHT22;8567;52.540;6.434;2024-03-06T09:04:05;19.40;52.10
16901;DHT22;8567;52.540;6.434;2024-03-06T09:06:32;19.40;51.90
16901;DHT22;8567;52.540;6.434;2024-03-06T09:08:59;19.40;52.00
16901;DHT22;8567;52.540;6.434;2024-03-06T09:11:25;19.40;52.00
16901;DHT22;8567;52.540;6.434;2024-03-06T09:13:53;19.40;52.90
16901;DHT22;8567;52.540;6.434;2024-03-06T09:16:20;19.50;52.80
16901;DHT22;8567;52.540;6.434;2024-03-06T09:18:47;19.50;52.80
16901;DHT22;8567;52.540;6.434;2024-03-06T09:21:13;19.50;52.50
16901;DHT22;8567;52.540;6.434;2024-03-06T09:23:40;19.50;52.30
16901;DHT22;8567;52.540;6.434;2024-03-06T09:26:07;19.50;51.90
16901;DHT22;8567;52.540;6.434;2024-03-06T09:28:33;19.50;51.60
16901;DHT22;8567;52.540;6.434;2024-03-06T09:31:01;19.50;52.20
16901;DHT22;8567;52.540;6.434;2024-03-06T09:33:28;19.60;52.40
16901;DHT22;8567;52.540;6.434;2024-03-06T09:35:54;19.60;52.60
16901;DHT22;8567;52.540;6.434;2024-03-06T09:38:22;19.60;52.70
16901;DHT22;8567;52.540;6.434;2024-03-06T09:40:49;19.60;53.00
16901;DHT22;8567;52.540;6.434;2024-03-06T09:43:16;19.60;53.10
16901;DHT22;8567;52.540;6.434;2024-03-06T09:45:43;19.70;53.30
16901;DHT22;8567;52.540;6.434;2024-03-06T09:48:12;19.70;53.40
16901;DHT22;8567;52.540;6.434;2024-03-06T09:50:40;19.70;53.50
16901;DHT22;8567;52.540;6.434;2024-03-06T09:53:10;19.70;53.50
16901;DHT22;8567;52.540;6.434;2024-03-06T09:55:38;19.80;53.60
16901;DHT22;8567;52.540;6.434;2024-03-06T09:58:06;19.80;53.70
16901;DHT22;8567;52.540;6.434;2024-03-06T10:00:33;19.80;53.70
16901;DHT22;8567;52.540;6.434;2024-03-06T10:03:01;19.80;53.80
16901;DHT22;8567;52.540;6.434;2024-03-06T10:05:32;19.90;53.80
16901;DHT22;8567;52.540;6.434;2024-03-06T10:08:00;19.90;54.00
16901;DHT22;8567;52.540;6.434;2024-03-06T10:10:27;19.90;54.00
16901;DHT22;8567;52.540;6.434;2024-03-06T10:12:53;19.90;54.00
16901;DHT22;8567;52.540;6.434;2024-03-06T10:15:22;19.90;54.00
16901;DHT22;8567;52.540;6.434;2024-03-06T10:17:51;20.00;54.10
16901;DHT22;8567;52.540;6.434;2024-03-06T10:20:18;20.00;54.00
16901;DHT22;8567;52.540;6.434;2024-03-06T10:22:46;20.00;54.10
16901;DHT22;8567;52.540;6.434;2024-03-06T10:25:13;20.00;54.20
16901;DHT22;8567;52.540;6.434;2024-03-06T10:27:40;20.10;54.10
16901;DHT22;8567;52.540;6.434;2024-03-06T10:30:07;20.10;54.20
16901;DHT22;8567;52.540;6.434;2024-03-06T10:32:36;20.10;54.10
16901;DHT22;8567;52.540;6.434;2024-03-06T10:35:03;20.10;54.20
16901;DHT22;8567;52.540;6.434;2024-03-06T10:37:32;20.20;54.20
16901;DHT22;8567;52.540;6.434;2024-03-06T10:40:02;20.20;54.10
16901;DHT22;8567;52.540;6.434;2024-03-06T10:42:31;20.20;54.20
16901;DHT22;8567;52.540;6.434;2024-03-06T10:44:59;20.20;54.10
16901;DHT22;8567;52.540;6.434;2024-03-06T10:47:27;20.20;54.20
16901;DHT22;8567;52.540;6.434;2024-03-06T10:49:54;20.20;54.20
16901;DHT22;8567;52.540;6.434;2024-03-06T10:52:21;20.20;54.20
16901;DHT22;8567;52.540;6.434;2024-03-06T10:54:48;20.30;54.20
16901;DHT22;8567;52.540;6.434;2024-03-06T10:57:17;20.30;54.20
16901;DHT22;8567;52.540;6.434;2024-03-06T10:59:44;20.30;53.70
16901;DHT22;8567;52.540;6.434;2024-03-06T11:02:11;20.30;53.10
16901;DHT22;8567;52.540;6.434;2024-03-06T11:04:38;20.30;53.20
16901;DHT22;8567;52.540;6.434;2024-03-06T11:07:05;20.30;53.10
16901;DHT22;8567;52.540;6.434;2024-03-06T11:09:32;20.30;53.00
16901;DHT22;8567;52.540;6.434;2024-03-06T11:12:00;20.30;53.00
16901;DHT22;8567;52.540;6.434;2024-03-06T11:14:30;20.40;52.90
16901;DHT22;8567;52.540;6.434;2024-03-06T11:17:01;20.40;52.80
16901;DHT22;8567;52.540;6.434;2024-03-06T11:19:28;20.40;52.70
16901;DHT22;8567;52.540;6.434;2024-03-06T11:21:55;20.40;52.60
16901;DHT22;8567;52.540;6.434;2024-03-06T11:24:22;20.40;52.60
16901;DHT22;8567;52.540;6.434;2024-03-06T11:26:55;20.40;52.60
16901;DHT22;8567;52.540;6.434;2024-03-06T11:29:28;20.40;52.40
16901;DHT22;8567;52.540;6.434;2024-03-06T11:31:59;20.40;52.30
16901;DHT22;8567;52.540;6.434;2024-03-06T11:34:26;20.40;51.40
16901;DHT22;8567;52.540;6.434;2024-03-06T11:36:53;20.40;50.50
16901;DHT22;8567;52.540;6.434;2024-03-06T11:39:20;20.40;50.00
16901;DHT22;8567;52.540;6.434;2024-03-06T11:41:47;20.30;49.80
16901;DHT22;8567;52.540;6.434;2024-03-06T11:44:15;20.40;49.70
16901;DHT22;8567;52.540;6.434;2024-03-06T11:46:43;20.30;49.70
16901;DHT22;8567;52.540;6.434;2024-03-06T11:49:14;20.30;49.60
16901;DHT22;8567;52.540;6.434;2024-03-06T11:51:41;20.30;49.50
16901;DHT22;8567;52.540;6.434;2024-03-06T11:54:08;20.30;49.10
16901;DHT22;8567;52.540;6.434;2024-03-06T11:56:36;20.30;48.90
16901;DHT22;8567;52.540;6.434;2024-03-06T11:59:04;20.40;49.00
16901;DHT22;8567;52.540;6.434;2024-03-06T12:01:31;20.30;48.90
16901;DHT22;8567;52.540;6.434;2024-03-06T12:03:59;20.30;48.70
16901;DHT22;8567;52.540;6.434;2024-03-06T12:06:26;20.30;48.70
16901;DHT22;8567;52.540;6.434;2024-03-06T12:08:53;20.30;48.90
16901;DHT22;8567;52.540;6.434;2024-03-06T12:11:20;20.30;48.90
16901;DHT22;8567;52.540;6.434;2024-03-06T12:13:47;20.30;49.10
16901;DHT22;8567;52.540;6.434;2024-03-06T12:16:14;20.30;49.20
16901;DHT22;8567;52.540;6.434;2024-03-06T12:18:41;20.30;49.20
16901;DHT22;8567;52.540;6.434;2024-03-06T12:21:10;20.30;49.20
16901;DHT22;8567;52.540;6.434;2024-03-06T12:23:36;20.30;49.30
16901;DHT22;8567;52.540;6.434;2024-03-06T12:26:03;20.30;49.20
16901;DHT22;8567;52.540;6.434;2024-03-06T12:28:30;20.30;49.00
16901;DHT22;8567;52.540;6.434;2024-03-06T12:30:57;20.30;49.00
16901;DHT22;8567;52.540;6.434;2024-03-06T12:33:26;20.30;49.10
16901;DHT22;8567;52.540;6.434;2024-03-06T12:36:00;20.30;49.10
16901;DHT22;8567;52.540;6.434;2024-03-06T12:38:29;20.40;49.10
16901;DHT22;8567;52.540;6.434;2024-03-06T12:40:56;20.30;49.10
16901;DHT22;8567;52.540;6.434;2024-03-06T12:43:23;20.30;49.10
16901;DHT22;8567;52.540;6.434;2024-03-06T12:45:50;20.30;49.00
16901;DHT22;8567;52.540;6.434;2024-03-06T12:48:20;20.20;49.10
16901;DHT22;8567;52.540;6.434;2024-03-06T12:50:46;20.20;48.80
16901;DHT22;8567;52.540;6.434;2024-03-06T12:53:16;20.20;49.20
16901;DHT22;8567;52.540;6.434;2024-03-06T12:55:45;20.20;49.50
16901;DHT22;8567;52.540;6.434;2024-03-06T12:58:12;20.20;49.20
16901;DHT22;8567;52.540;6.434;2024-03-06T13:00:39;20.20;49.00
16901;DHT22;8567;52.540;6.434;2024-03-06T13:03:06;20.20;48.90
16901;DHT22;8567;52.540;6.434;2024-03-06T13:05:32;20.20;48.90
16901;DHT22;8567;52.540;6.434;2024-03-06T13:07:59;20.20;49.00
16901;DHT22;8567;52.540;6.434;2024-03-06T13:10:26;20.20;49.10
16901;DHT22;8567;52.540;6.434;2024-03-06T13:12:54;20.20;49.10
16901;DHT22;8567;52.540;6.434;2024-03-06T13:15:21;20.20;49.10
16901;DHT22;8567;52.540;6.434;2024-03-06T13:17:47;20.20;49.00
16901;DHT22;8567;52.540;6.434;2024-03-06T13:20:14;20.20;49.10
16901;DHT22;8567;52.540;6.434;2024-03-06T13:22:41;20.20;49.20
16901;DHT22;8567;52.540;6.434;2024-03-06T13:25:09;20.20;49.00
16901;DHT22;8567;52.540;6.434;2024-03-06T13:27:36;20.20;48.90
16901;DHT22;8567;52.540;6.434;2024-03-06T13:30:05;20.20;48.80
16901;DHT22;8567;52.540;6.434;2024-03-06T13:32:33;20.30;48.80
16901;DHT22;8567;52.540;6.434;2024-03-06T13:34:59;20.30;48.90
16901;DHT22;8567;52.540;6.434;2024-03-06T13:37:26;20.30;48.80
16901;DHT22;8567;52.540;6.434;2024-03-06T13:39:53;20.30;48.90
16901;DHT22;8567;52.540;6.434;2024-03-06T13:42:23;20.30;49.00
16901;DHT22;8567;52.540;6.434;2024-03-06T13:44:50;20.30;49.00
16901;DHT22;8567;52.540;6.434;2024-03-06T13:47:18;20.30;49.00
16901;DHT22;8567;52.540;6.434;2024-03-06T13:49:44;20.30;48.90
16901;DHT22;8567;52.540;6.434;2024-03-06T13:52:11;20.30;48.90
16901;DHT22;8567;52.540;6.434;2024-03-06T13:54:39;20.30;48.90
16901;DHT22;8567;52.540;6.434;2024-03-06T13:57:06;20.30;48.80
16901;DHT22;8567;52.540;6.434;2024-03-06T13:59:33;20.30;49.00
16901;DHT22;8567;52.540;6.434;2024-03-06T14:02:00;20.30;48.90
16901;DHT22;8567;52.540;6.434;2024-03-06T14:04:28;20.30;48.90
16901;DHT22;8567;52.540;6.434;2024-03-06T14:06:54;20.30;48.90
16901;DHT22;8567;52.540;6.434;2024-03-06T14:09:23;20.30;48.90
16901;DHT22;8567;52.540;6.434;2024-03-06T14:11:50;20.30;49.00
16901;DHT22;8567;52.540;6.434;2024-03-06T14:14:17;20.30;48.90
16901;DHT22;8567;52.540;6.434;2024-03-06T14:16:44;20.40;48.90
16901;DHT22;8567;52.540;6.434;2024-03-06T14:19:10;20.40;49.10
16901;DHT22;8567;52.540;6.434;2024-03-06T14:21:38;20.30;49.00
16901;DHT22;8567;52.540;6.434;2024-03-06T14:24:05;20.40;49.20
16901;DHT22;8567;52.540;6.434;2024-03-06T14:26:32;20.40;49.10
16901;DHT22;8567;52.540;6.434;2024-03-06T14:28:59;20.40;49.10
16901;DHT22;8567;52.540;6.434;2024-03-06T14:31:26;20.40;49.20
16901;DHT22;8567;52.540;6.434;2024-03-06T14:33:53;20.40;49.10
16901;DHT22;8567;52.540;6.434;2024-03-06T14:36:20;20.40;49.00
16901;DHT22;8567;52.540;6.434;2024-03-06T14:38:51;20.40;48.90
16901;DHT22;8567;52.540;6.434;2024-03-06T14:41:18;20.40;49.00
16901;DHT22;8567;52.540;6.434;2024-03-06T14:43:45;20.40;48.90
16901;DHT22;8567;52.540;6.434;2024-03-06T14:46:12;20.50;48.80
16901;DHT22;8567;52.540;6.434;2024-03-06T14:48:39;20.50;48.70
16901;DHT22;8567;52.540;6.434;2024-03-06T14:51:06;20.50;48.50
16901;DHT22;8567;52.540;6.434;2024-03-06T14:53:32;20.60;48.30
16901;DHT22;8567;52.540;6.434;2024-03-06T14:56:00;20.60;48.40
16901;DHT22;8567;52.540;6.434;2024-03-06T14:58:27;20.60;48.30
16901;DHT22;8567;52.540;6.434;2024-03-06T15:00:54;20.60;48.20
16901;DHT22;8567;52.540;6.434;2024-03-06T15:03:20;20.60;47.90
16901;DHT22;8567;52.540;6.434;2024-03-06T15:05:47;20.60;47.60
16901;DHT22;8567;52.540;6.434;2024-03-06T15:08:15;20.60;47.50
16901;DHT22;8567;52.540;6.434;2024-03-06T15:10:41;20.60;47.40
16901;DHT22;8567;52.540;6.434;2024-03-06T15:13:09;20.60;47.40
16901;DHT22;8567;52.540;6.434;2024-03-06T15:15:38;20.60;47.40
16901;DHT22;8567;52.540;6.434;2024-03-06T15:18:05;20.60;47.40
16901;DHT22;8567;52.540;6.434;2024-03-06T15:20:32;20.50;47.30
16901;DHT22;8567;52.540;6.434;2024-03-06T15:22:59;20.50;47.30
16901;DHT22;8567;52.540;6.434;2024-03-06T15:25:27;20.50;47.20
16901;DHT22;8567;52.540;6.434;2024-03-06T15:27:53;20.50;47.10
16901;DHT22;8567;52.540;6.434;2024-03-06T15:30:21;20.50;47.30
16901;DHT22;8567;52.540;6.434;2024-03-06T15:32:48;20.50;47.30
16901;DHT22;8567;52.540;6.434;2024-03-06T15:35:14;20.50;47.30
16901;DHT22;8567;52.540;6.434;2024-03-06T15:37:41;20.50;47.30
16901;DHT22;8567;52.540;6.434;2024-03-06T15:40:08;20.40;47.30
16901;DHT22;8567;52.540;6.434;2024-03-06T15:42:36;20.40;47.30
16901;DHT22;8567;52.540;6.434;2024-03-06T15:45:03;20.40;47.20
16901;DHT22;8567;52.540;6.434;2024-03-06T15:47:31;20.40;47.10
16901;DHT22;8567;52.540;6.434;2024-03-06T15:49:59;20.40;47.10
16901;DHT22;8567;52.540;6.434;2024-03-06T15:52:26;20.40;47.20
16901;DHT22;8567;52.540;6.434;2024-03-06T15:54:52;20.30;47.20
16901;DHT22;8567;52.540;6.434;2024-03-06T15:57:19;20.40;47.30
16901;DHT22;8567;52.540;6.434;2024-03-06T15:59:46;20.30;47.40
16901;DHT22;8567;52.540;6.434;2024-03-06T16:02:13;20.30;47.50
16901;DHT22;8567;52.540;6.434;2024-03-06T16:04:41;20.30;47.70
16901;DHT22;8567;52.540;6.434;2024-03-06T16:07:08;20.30;47.50
16901;DHT22;8567;52.540;6.434;2024-03-06T16:09:37;20.30;47.50
16901;DHT22;8567;52.540;6.434;2024-03-06T16:12:04;20.30;47.60
16901;DHT22;8567;52.540;6.434;2024-03-06T16:14:30;20.20;47.50
16901;DHT22;8567;52.540;6.434;2024-03-06T16:16:57;20.20;47.60
16901;DHT22;8567;52.540;6.434;2024-03-06T16:19:31;20.20;47.70
16901;DHT22;8567;52.540;6.434;2024-03-06T16:21:59;20.20;47.70
16901;DHT22;8567;52.540;6.434;2024-03-06T16:24:26;20.20;47.60
16901;DHT22;8567;52.540;6.434;2024-03-06T16:26:53;20.20;47.80
16901;DHT22;8567;52.540;6.434;2024-03-06T16:29:20;20.20;47.90
16901;DHT22;8567;52.540;6.434;2024-03-06T16:31:47;20.20;47.80
16901;DHT22;8567;52.540;6.434;2024-03-06T16:34:14;20.20;47.90
16901;DHT22;8567;52.540;6.434;2024-03-06T16:36:42;20.10;47.90
16901;DHT22;8567;52.540;6.434;2024-03-06T16:39:10;20.10;47.90
16901;DHT22;8567;52.540;6.434;2024-03-06T16:41:37;20.20;47.90
16901;DHT22;8567;52.540;6.434;2024-03-06T16:44:07;20.20;47.90
16901;DHT22;8567;52.540;6.434;2024-03-06T16:46:35;20.10;47.90
16901;DHT22;8567;52.540;6.434;2024-03-06T16:49:02;20.10;47.90
16901;DHT22;8567;52.540;6.434;2024-03-06T16:51:29;20.10;48.00
16901;DHT22;8567;52.540;6.434;2024-03-06T16:53:58;20.10;48.10
16901;DHT22;8567;52.540;6.434;2024-03-06T16:56:26;20.10;48.00
16901;DHT22;8567;52.540;6.434;2024-03-06T16:58:53;20.10;48.10
16901;DHT22;8567;52.540;6.434;2024-03-06T17:01:20;20.10;48.00
16901;DHT22;8567;52.540;6.434;2024-03-06T17:03:47;20.10;48.00
16901;DHT22;8567;52.540;6.434;2024-03-06T17:06:13;20.10;48.10
16901;DHT22;8567;52.540;6.434;2024-03-06T17:08:40;20.10;48.10
16901;DHT22;8567;52.540;6.434;2024-03-06T17:11:07;20.10;48.20
16901;DHT22;8567;52.540;6.434;2024-03-06T17:13:35;20.00;48.10
16901;DHT22;8567;52.540;6.434;2024-03-06T17:16:03;20.00;48.20
16901;DHT22;8567;52.540;6.434;2024-03-06T17:18:31;20.00;48.10
16901;DHT22;8567;52.540;6.434;2024-03-06T17:20:58;20.00;48.20
16901;DHT22;8567;52.540;6.434;2024-03-06T17:23:25;20.00;48.20
16901;DHT22;8567;52.540;6.434;2024-03-06T17:25:52;20.00;48.30
16901;DHT22;8567;52.540;6.434;2024-03-06T17:28:18;20.00;47.90
16901;DHT22;8567;52.540;6.434;2024-03-06T17:30:46;19.90;47.50
16901;DHT22;8567;52.540;6.434;2024-03-06T17:33:13;19.90;47.20
16901;DHT22;8567;52.540;6.434;2024-03-06T17:35:41;19.90;47.10
16901;DHT22;8567;52.540;6.434;2024-03-06T17:38:08;19.90;47.00
16901;DHT22;8567;52.540;6.434;2024-03-06T17:40:35;19.90;46.90
16901;DHT22;8567;52.540;6.434;2024-03-06T17:43:02;19.80;46.80
16901;DHT22;8567;52.540;6.434;2024-03-06T17:45:28;19.80;46.90
16901;DHT22;8567;52.540;6.434;2024-03-06T17:47:56;19.80;47.10
16901;DHT22;8567;52.540;6.434;2024-03-06T17:50:23;19.80;47.20
16901;DHT22;8567;52.540;6.434;2024-03-06T17:52:50;19.80;47.30
16901;DHT22;8567;52.540;6.434;2024-03-06T17:55:17;19.80;47.50
16901;DHT22;8567;52.540;6.434;2024-03-06T17:57:44;19.80;47.60
16901;DHT22;8567;52.540;6.434;2024-03-06T18:00:12;19.80;47.60
16901;DHT22;8567;52.540;6.434;2024-03-06T18:02:38;19.80;47.70
16901;DHT22;8567;52.540;6.434;2024-03-06T18:05:07;19.80;47.70
16901;DHT22;8567;52.540;6.434;2024-03-06T18:07:34;19.80;47.80
16901;DHT22;8567;52.540;6.434;2024-03-06T18:10:01;19.80;47.80
16901;DHT22;8567;52.540;6.434;2024-03-06T18:12:28;19.80;47.90
16901;DHT22;8567;52.540;6.434;2024-03-06T18:14:55;19.80;47.90
16901;DHT22;8567;52.540;6.434;2024-03-06T18:17:22;19.80;48.00
16901;DHT22;8567;52.540;6.434;2024-03-06T18:19:49;19.70;48.00
16901;DHT22;8567;52.540;6.434;2024-03-06T18:22:17;19.80;48.00
16901;DHT22;8567;52.540;6.434;2024-03-06T18:24:44;19.70;48.00
16901;DHT22;8567;52.540;6.434;2024-03-06T18:27:11;19.70;48.10
16901;DHT22;8567;52.540;6.434;2024-03-06T18:29:38;19.70;48.20
16901;DHT22;8567;52.540;6.434;2024-03-06T18:32:05;19.70;48.20
16901;DHT22;8567;52.540;6.434;2024-03-06T18:34:33;19.70;48.20
16901;DHT22;8567;52.540;6.434;2024-03-06T18:37:00;19.70;48.20
16901;DHT22;8567;52.540;6.434;2024-03-06T18:39:29;19.70;48.20
16901;DHT22;8567;52.540;6.434;2024-03-06T18:41:56;19.70;48.30
16901;DHT22;8567;52.540;6.434;2024-03-06T18:44:23;19.70;48.40
16901;DHT22;8567;52.540;6.434;2024-03-06T18:46:50;19.70;48.30
16901;DHT22;8567;52.540;6.434;2024-03-06T18:49:17;19.70;48.40
16901;DHT22;8567;52.540;6.434;2024-03-06T18:51:46;19.70;48.40
16901;DHT22;8567;52.540;6.434;2024-03-06T18:54:12;19.60;48.50
16901;DHT22;8567;52.540;6.434;2024-03-06T18:56:40;19.70;48.50
16901;DHT22;8567;52.540;6.434;2024-03-06T18:59:08;19.70;48.60
16901;DHT22;8567;52.540;6.434;2024-03-06T19:01:38;19.70;48.50
16901;DHT22;8567;52.540;6.434;2024-03-06T19:04:04;19.60;48.50
16901;DHT22;8567;52.540;6.434;2024-03-06T19:06:31;19.60;48.60
16901;DHT22;8567;52.540;6.434;2024-03-06T19:08:58;19.60;48.60
16901;DHT22;8567;52.540;6.434;2024-03-06T19:11:24;19.60;48.60
16901;DHT22;8567;52.540;6.434;2024-03-06T19:13:52;19.60;48.60
16901;DHT22;8567;52.540;6.434;2024-03-06T19:16:19;19.60;48.70
16901;DHT22;8567;52.540;6.434;2024-03-06T19:18:48;19.60;48.70
16901;DHT22;8567;52.540;6.434;2024-03-06T19:21:14;19.60;48.70
16901;DHT22;8567;52.540;6.434;2024-03-06T19:23:41;19.60;48.80
16901;DHT22;8567;52.540;6.434;2024-03-06T19:26:08;19.60;48.80
16901;DHT22;8567;52.540;6.434;2024-03-06T19:28:34;19.60;48.80
16901;DHT22;8567;52.540;6.434;2024-03-06T19:31:02;19.60;48.80
16901;DHT22;8567;52.540;6.434;2024-03-06T19:33:29;19.60;48.90
16901;DHT22;8567;52.540;6.434;2024-03-06T19:35:56;19.60;48.90
16901;DHT22;8567;52.540;6.434;2024-03-06T19:38:22;19.60;48.90
16901;DHT22;8567;52.540;6.434;2024-03-06T19:40:50;19.60;48.90
16901;DHT22;8567;52.540;6.434;2024-03-06T19:43:16;19.60;48.90
16901;DHT22;8567;52.540;6.434;2024-03-06T19:45:43;19.60;48.90
16901;DHT22;8567;52.540;6.434;2024-03-06T19:48:11;19.50;48.80
16901;DHT22;8567;52.540;6.434;2024-03-06T19:50:40;19.60;48.80
16901;DHT22;8567;52.540;6.434;2024-03-06T19:53:06;19.60;48.90
16901;DHT22;8567;52.540;6.434;2024-03-06T19:55:33;19.50;48.80
16901;DHT22;8567;52.540;6.434;2024-03-06T19:57:59;19.50;48.80
16901;DHT22;8567;52.540;6.434;2024-03-06T20:00:26;19.50;48.70
16901;DHT22;8567;52.540;6.434;2024-03-06T20:02:55;19.50;48.80
16901;DHT22;8567;52.540;6.434;2024-03-06T20:05:23;19.50;48.70
16901;DHT22;8567;52.540;6.434;2024-03-06T20:07:50;19.50;48.80
16901;DHT22;8567;52.540;6.434;2024-03-06T20:10:16;19.50;48.70
16901;DHT22;8567;52.540;6.434;2024-03-06T20:12:44;19.50;48.80
16901;DHT22;8567;52.540;6.434;2024-03-06T20:15:11;19.50;48.80
16901;DHT22;8567;52.540;6.434;2024-03-06T20:17:37;19.50;48.80
16901;DHT22;8567;52.540;6.434;2024-03-06T20:20:04;19.50;48.80
16901;DHT22;8567;52.540;6.434;2024-03-06T20:22:37;19.50;48.80
16901;DHT22;8567;52.540;6.434;2024-03-06T20:25:04;19.50;48.80
16901;DHT22;8567;52.540;6.434;2024-03-06T20:27:31;19.50;48.90
16901;DHT22;8567;52.540;6.434;2024-03-06T20:29:58;19.50;48.90
16901;DHT22;8567;52.540;6.434;2024-03-06T20:32:24;19.50;48.90
16901;DHT22;8567;52.540;6.434;2024-03-06T20:34:51;19.50;48.90
16901;DHT22;8567;52.540;6.434;2024-03-06T20:37:19;19.50;48.90
16901;DHT22;8567;52.540;6.434;2024-03-06T20:39:47;19.40;49.00
16901;DHT22;8567;52.540;6.434;2024-03-06T20:42:14;19.40;48.90
16901;DHT22;8567;52.540;6.434;2024-03-06T20:44:40;19.50;49.00
16901;DHT22;8567;52.540;6.434;2024-03-06T20:47:07;19.40;48.90
16901;DHT22;8567;52.540;6.434;2024-03-06T20:49:34;19.40;49.00
16901;DHT22;8567;52.540;6.434;2024-03-06T20:52:00;19.40;49.00
16901;DHT22;8567;52.540;6.434;2024-03-06T20:54:27;19.40;49.00
16901;DHT22;8567;52.540;6.434;2024-03-06T20:56:55;19.40;49.00
16901;DHT22;8567;52.540;6.434;2024-03-06T20:59:22;19.40;49.00
16901;DHT22;8567;52.540;6.434;2024-03-06T21:01:48;19.40;49.00
16901;DHT22;8567;52.540;6.434;2024-03-06T21:04:17;19.40;49.00
16901;DHT22;8567;52.540;6.434;2024-03-06T21:06:44;19.40;49.00
16901;DHT22;8567;52.540;6.434;2024-03-06T21:09:11;19.40;49.00
16901;DHT22;8567;52.540;6.434;2024-03-06T21:11:38;19.40;49.00
16901;DHT22;8567;52.540;6.434;2024-03-06T21:14:06;19.40;49.00
16901;DHT22;8567;52.540;6.434;2024-03-06T21:16:33;19.40;49.00
16901;DHT22;8567;52.540;6.434;2024-03-06T21:18:59;19.40;49.00
16901;DHT22;8567;52.540;6.434;2024-03-06T21:21:26;19.40;49.00
16901;DHT22;8567;52.540;6.434;2024-03-06T21:23:53;19.40;48.90
16901;DHT22;8567;52.540;6.434;2024-03-06T21:26:19;19.40;48.90
16901;DHT22;8567;52.540;6.434;2024-03-06T21:28:46;19.40;49.00
16901;DHT22;8567;52.540;6.434;2024-03-06T21:31:14;19.40;49.00
16901;DHT22;8567;52.540;6.434;2024-03-06T21:33:41;19.40;48.90
16901;DHT22;8567;52.540;6.434;2024-03-06T21:36:08;19.30;49.00
16901;DHT22;8567;52.540;6.434;2024-03-06T21:38:35;19.30;49.00
16901;DHT22;8567;52.540;6.434;2024-03-06T21:41:02;19.40;49.00
16901;DHT22;8567;52.540;6.434;2024-03-06T21:43:28;19.30;49.00
16901;DHT22;8567;52.540;6.434;2024-03-06T21:45:55;19.30;49.00
16901;DHT22;8567;52.540;6.434;2024-03-06T21:48:23;19.30;49.00
16901;DHT22;8567;52.540;6.434;2024-03-06T21:50:49;19.30;49.00
16901;DHT22;8567;52.540;6.434;2024-03-06T21:53:17;19.30;49.10
16901;DHT22;8567;52.540;6.434;2024-03-06T21:55:44;19.30;49.10
16901;DHT22;8567;52.540;6.434;2024-03-06T21:58:10;19.30;49.10
16901;DHT22;8567;52.540;6.434;2024-03-06T22:00:37;19.30;49.10
16901;DHT22;8567;52.540;6.434;2024-03-06T22:03:04;19.30;49.00
16901;DHT22;8567;52.540;6.434;2024-03-06T22:05:32;19.30;49.00
16901;DHT22;8567;52.540;6.434;2024-03-06T22:07:59;19.30;49.00
16901;DHT22;8567;52.540;6.434;2024-03-06T22:10:25;19.30;49.00
16901;DHT22;8567;52.540;6.434;2024-03-06T22:12:53;19.30;49.00
16901;DHT22;8567;52.540;6.434;2024-03-06T22:15:19;19.30;49.00
16901;DHT22;8567;52.540;6.434;2024-03-06T22:17:46;19.30;49.00
16901;DHT22;8567;52.540;6.434;2024-03-06T22:20:13;19.30;49.00
16901;DHT22;8567;52.540;6.434;2024-03-06T22:22:41;19.30;49.00
16901;DHT22;8567;52.540;6.434;2024-03-06T22:25:08;19.30;49.00
16901;DHT22;8567;52.540;6.434;2024-03-06T22:27:34;19.30;49.00
16901;DHT22;8567;52.540;6.434;2024-03-06T22:30:03;19.30;49.00
16901;DHT22;8567;52.540;6.434;2024-03-06T22:32:33;19.30;48.90
16901;DHT22;8567;52.540;6.434;2024-03-06T22:35:00;19.30;49.00
16901;DHT22;8567;52.540;6.434;2024-03-06T22:37:27;19.20;49.00
16901;DHT22;8567;52.540;6.434;2024-03-06T22:39:55;19.20;49.00
16901;DHT22;8567;52.540;6.434;2024-03-06T22:42:22;19.20;49.00
16901;DHT22;8567;52.540;6.434;2024-03-06T22:44:48;19.20;49.00
16901;DHT22;8567;52.540;6.434;2024-03-06T22:47:15;19.20;48.90
16901;DHT22;8567;52.540;6.434;2024-03-06T22:49:42;19.20;49.00
16901;DHT22;8567;52.540;6.434;2024-03-06T22:52:09;19.20;48.90
16901;DHT22;8567;52.540;6.434;2024-03-06T22:54:35;19.20;49.00
16901;DHT22;8567;52.540;6.434;2024-03-06T22:57:04;19.20;49.00
16901;DHT22;8567;52.540;6.434;2024-03-06T22:59:30;19.20;49.00
16901;DHT22;8567;52.540;6.434;2024-03-06T23:01:57;19.20;49.00
16901;DHT22;8567;52.540;6.434;2024-03-06T23:04:24;19.20;48.90
16901;DHT22;8567;52.540;6.434;2024-03-06T23:06:50;19.20;48.90
16901;DHT22;8567;52.540;6.434;2024-03-06T23:09:17;19.20;48.80
16901;DHT22;8567;52.540;6.434;2024-03-06T23:11:44;19.20;48.80
16901;DHT22;8567;52.540;6.434;2024-03-06T23:14:12;19.20;48.80
16901;DHT22;8567;52.540;6.434;2024-03-06T23:16:38;19.20;48.80
16901;DHT22;8567;52.540;6.434;2024-03-06T23:19:05;19.20;48.80
16901;DHT22;8567;52.540;6.434;2024-03-06T23:21:31;19.20;48.80
16901;DHT22;8567;52.540;6.434;2024-03-06T23:24:01;19.20;48.80
16901;DHT22;8567;52.540;6.434;2024-03-06T23:26:28;19.20;48.70
16901;DHT22;8567;52.540;6.434;2024-03-06T23:28:54;19.10;48.70
16901;DHT22;8567;52.540;6.434;2024-03-06T23:31:22;19.10;48.70
16901;DHT22;8567;52.540;6.434;2024-03-06T23:33:49;19.10;48.70
16901;DHT22;8567;52.540;6.434;2024-03-06T23:36:16;19.10;48.60
16901;DHT22;8567;52.540;6.434;2024-03-06T23:38:43;19.10;48.60
16901;DHT22;8567;52.540;6.434;2024-03-06T23:41:09;19.10;48.60
16901;DHT22;8567;52.540;6.434;2024-03-06T23:43:36;19.10;48.60
16901;DHT22;8567;52.540;6.434;2024-03-06T23:46:02;19.10;48.60
16901;DHT22;8567;52.540;6.434;2024-03-06T23:48:31;19.10;48.60
16901;DHT22;8567;52.540;6.434;2024-03-06T23:50:57;19.10;48.60
16901;DHT22;8567;52.540;6.434;2024-03-06T23:53:24;19.10;48.60
16901;DHT22;8567;52.540;6.434;2024-03-06T23:55:51;19.10;48.60
16901;DHT22;8567;52.540;6.434;2024-03-06T23:58:17;19.10;48.60
